Time;durP1;ratioP1;P1;durP2;ratioP2;P2;SDS_P1;SDS_P2;PMS_P1;PMS_P2;Temp;Humidity;BMP_temperature;BMP_pressure;BME280_temperature;BME280_humidity;BME280_pressure;Samples;Min_cycle;Max_cycle;Signal;HPM_P1;HPM_P2
2023/03/07 00:02:09;;;;;;;;;;;;;;;-142.75;100.00;76548.63;4934054;29;19921;-66
2023/03/07 00:04:34;;;;;;;;;;;;;;;-142.75;100.00;76550.59;4936570;29;19911;-66
2023/03/07 00:06:59;;;;;;;;;;;;;;;-142.75;100.00;76562.41;4930123;29;19911;-66
2023/03/07 00:09:25;;;;;;;;;;;;;;;-142.75;100.00;76568.31;4929692;29;19915;-67
2023/03/07 00:11:50;;;;;;;;;;;;;;;-142.75;100.00;76566.34;4910581;29;19911;-66
2023/03/07 00:14:15;;;;;;;;;;;;;;;-142.75;100.00;76570.28;4925120;29;19966;-67
2023/03/07 00:16:41;;;;;;;;;;;;;;;-142.75;100.00;76582.09;4927742;29;19966;-67
2023/03/07 00:19:06;;;;;;;;;;;;;;;-142.75;100.00;76562.41;4935742;29;19964;-67
2023/03/07 00:21:32;;;;;;;;;;;;;;;-142.75;100.00;76572.25;4935677;29;20005;-67
2023/03/07 00:23:57;;;;;;;;;;;;;;;-142.75;100.00;76570.28;4935905;29;19969;-67
2023/03/07 00:26:23;;;;;;;;;;;;;;;-142.75;100.00;76572.25;4934569;29;19914;-66
2023/03/07 00:28:50;;;;;;;;;;;;;;;-142.75;100.00;76572.25;4935820;29;19913;-66
2023/03/07 00:31:15;;;;;;;;;;;;;;;-142.75;100.00;76564.38;4935464;29;19918;-66
2023/03/07 00:33:40;;;;;;;;;;;;;;;-142.75;100.00;76564.38;4918645;29;19915;-66
2023/03/07 00:36:07;;;;;;;;;;;;;;;-142.75;100.00;76558.47;4935681;29;19911;-66
2023/03/07 00:38:33;;;;;;;;;;;;;;;-142.75;100.00;76558.47;4935575;29;19911;-66
2023/03/07 00:41:03;;;;;;;;;;;;;;;-142.75;100.00;76554.53;4933865;29;20029;-66
2023/03/07 00:43:28;;;;;;;;;;;;;;;-142.75;100.00;76558.47;4935135;29;19911;-67
2023/03/07 00:45:54;;;;;;;;;;;;;;;-142.75;100.00;76558.47;4935531;29;19917;-67
2023/03/07 00:48:19;;;;;;;;;;;;;;;-142.75;100.00;76554.53;4918344;29;19969;-66
2023/03/07 00:50:45;;;;;;;;;;;;;;;-142.75;100.00;76546.66;4935155;29;19910;-66
2023/03/07 00:53:10;;;;;;;;;;;;;;;-142.75;100.00;76546.66;4935345;29;20381;-67
2023/03/07 00:55:35;;;;;;;;;;;;;;;-142.75;100.00;76542.72;4935271;29;20396;-67
2023/03/07 00:58:00;;;;;;;;;;;;;;;-142.75;100.00;76546.66;4934015;29;19915;-67
2023/03/07 01:00:25;;;;;;;;;;;;;;;-142.75;100.00;76542.72;4935024;29;19971;-67
2023/03/07 01:02:51;;;;;;;;;;;;;;;-142.75;100.00;76550.59;4934257;29;19997;-67
2023/03/07 01:05:16;;;;;;;;;;;;;;;-142.75;100.00;76542.72;4933912;29;19910;-66
2023/03/07 01:07:41;;;;;;;;;;;;;;;-142.75;100.00;76542.72;4935220;29;20001;-66
2023/03/07 01:10:07;;;;;;;;;;;;;;;-142.75;100.00;76542.72;4932490;29;19915;-67
2023/03/07 01:12:32;;;;;;;;;;;;;;;-142.75;100.00;76538.78;4934968;29;20423;-66
2023/03/07 01:14:58;;;;;;;;;;;;;;;-142.75;100.00;76542.72;4935064;29;19910;-67
2023/03/07 01:17:23;;;;;;;;;;;;;;;-142.75;100.00;76544.69;4935122;29;19922;-67
2023/03/07 01:19:48;;;;;;;;;;;;;;;-142.75;100.00;76538.78;4934624;29;19953;-67
2023/03/07 01:22:13;;;;;;;;;;;;;;;-142.75;100.00;76525.03;4934631;29;19919;-67
2023/03/07 01:24:38;;;;;;;;;;;;;;;-142.75;100.00;76527.00;4917824;29;19950;-67
2023/03/07 01:27:04;;;;;;;;;;;;;;;-142.75;100.00;76540.75;4934805;29;19950;-67
2023/03/07 01:29:29;;;;;;;;;;;;;;;-142.75;100.00;76530.91;4934681;29;19966;-66
2023/03/07 01:31:54;;;;;;;;;;;;;;;-142.75;100.00;76527.00;4934722;29;19959;-67
2023/03/07 01:34:19;;;;;;;;;;;;;;;-142.75;100.00;76521.09;4933492;29;19910;-67
2023/03/07 01:36:44;;;;;;;;;;;;;;;-142.75;100.00;76525.03;4934743;29;19915;-66
2023/03/07 01:39:13;;;;;;;;;;;;;;;-142.75;100.00;76544.69;4933098;29;19911;-66
2023/03/07 01:41:38;;;;;;;;;;;;;;;-142.75;100.00;76538.78;4934525;29;19926;-66
2023/03/07 01:44:11;;;;;;;;;;;;;;;-142.75;100.00;76527.00;4917603;29;19915;-67
2023/03/07 01:46:39;;;;;;;;;;;;;;;-142.75;100.00;76530.91;4934747;29;20003;-67
2023/03/07 01:49:14;;;;;;;;;;;;;;;-142.75;100.00;76527.00;4934544;29;20351;-66
2023/03/07 01:51:40;;;;;;;;;;;;;;;-142.75;100.00;76530.91;4934425;29;19911;-67
2023/03/07 01:54:06;;;;;;;;;;;;;;;-142.75;100.00;76542.72;4934507;29;19918;-67
2023/03/07 01:56:32;;;;;;;;;;;;;;;-142.75;100.00;76536.84;4934436;29;19911;-67
2023/03/07 01:58:57;;;;;;;;;;;;;;;-142.75;100.00;76527.00;4934538;29;19910;-68
2023/03/07 02:01:24;;;;;;;;;;;;;;;-142.75;100.00;76532.88;4917137;29;20010;-67
2023/03/07 02:03:49;;;;;;;;;;;;;;;-142.75;100.00;76515.19;4934560;29;19915;-67
2023/03/07 02:06:14;;;;;;;;;;;;;;;-142.75;100.00;76505.34;4934406;29;19967;-67
2023/03/07 02:08:43;;;;;;;;;;;;;;;-142.75;100.00;76507.31;4934427;29;19914;-67
2023/03/07 02:11:09;;;;;;;;;;;;;;;-142.75;100.00;76513.22;4932846;29;20005;-66
2023/03/07 02:13:34;;;;;;;;;;;;;;;-142.75;100.00;76503.38;4934962;29;19910;-67
2023/03/07 02:16:01;;;;;;;;;;;;;;;-142.75;100.00;76505.34;4938176;29;19918;-67
2023/03/07 02:18:29;;;;;;;;;;;;;;;-142.75;100.00;76493.53;4938175;29;20380;-67
2023/03/07 02:21:03;;;;;;;;;;;;;;;-142.75;100.00;76491.56;4937579;29;19929;-66
2023/03/07 02:23:40;;;;;;;;;;;;;;;-142.75;100.00;76477.78;4938072;29;20389;-66
2023/03/07 02:26:08;;;;;;;;;;;;;;;-142.75;100.00;76485.66;4938014;29;19918;-67
2023/03/07 02:28:33;;;;;;;;;;;;;;;-142.75;100.00;76483.69;4937867;29;19986;-66
2023/03/07 02:31:00;;;;;;;;;;;;;;;-142.75;100.00;76487.63;4936329;29;19915;-66
2023/03/07 02:33:27;;;;;;;;;;;;;;;-142.75;100.00;76491.56;4937845;29;19945;-67
2023/03/07 02:35:54;;;;;;;;;;;;;;;-142.75;100.00;76479.75;4937805;29;19917;-67
2023/03/07 02:38:20;;;;;;;;;;;;;;;-142.75;100.00;76475.81;4920674;29;19911;-67
2023/03/07 02:40:46;;;;;;;;;;;;;;;-142.75;100.00;76483.69;4937447;29;19921;-66
2023/03/07 02:43:11;;;;;;;;;;;;;;;-142.75;100.00;76489.59;4936383;29;19910;-67
2023/03/07 02:45:36;;;;;;;;;;;;;;;-142.75;100.00;76483.69;4937698;29;19910;-67
2023/03/07 02:48:01;;;;;;;;;;;;;;;-142.75;100.00;76479.75;4937328;29;19911;-66
2023/03/07 02:50:26;;;;;;;;;;;;;;;-142.75;100.00;76471.88;4937235;29;19910;-67
2023/03/07 02:52:52;;;;;;;;;;;;;;;-142.75;100.00;76481.72;4937374;29;19911;-67
2023/03/07 02:55:17;;;;;;;;;;;;;;;-142.75;100.00;76479.75;4937456;29;20288;-66
2023/03/07 02:57:42;;;;;;;;;;;;;;;-142.75;100.00;76475.81;4937521;29;20367;-66
2023/03/07 03:00:10;;;;;;;;;;;;;;;-142.75;100.00;76477.78;4936077;29;19986;-67
2023/03/07 03:02:36;;;;;;;;;;;;;;;-142.75;100.00;76467.94;4937196;29;19950;-67
2023/03/07 03:05:01;;;;;;;;;;;;;;;-142.75;100.00;76469.91;4937348;29;19980;-67
2023/03/07 03:07:26;;;;;;;;;;;;;;;-142.75;100.00;76465.97;4937248;29;19965;-67
2023/03/07 03:09:51;;;;;;;;;;;;;;;-142.75;100.00;76477.78;4936981;29;19911;-66
2023/03/07 03:12:16;;;;;;;;;;;;;;;-142.75;100.00;76464.00;4937135;29;19915;-67
2023/03/07 03:14:42;;;;;;;;;;;;;;;-142.75;100.00;76465.97;4935879;29;20340;-67
2023/03/07 03:17:07;;;;;;;;;;;;;;;-142.75;100.00;76460.06;4936926;29;19923;-66
2023/03/07 03:19:32;;;;;;;;;;;;;;;-142.75;100.00;76454.16;4936587;29;19949;-66
2023/03/07 03:21:57;;;;;;;;;;;;;;;-142.75;100.00;76444.31;4936764;29;20506;-66
2023/03/07 03:24:23;;;;;;;;;;;;;;;-142.75;100.00;76446.28;4937042;29;19969;-66
2023/03/07 03:26:48;;;;;;;;;;;;;;;-142.75;100.00;76448.25;4935977;29;19973;-66
2023/03/07 03:29:13;;;;;;;;;;;;;;;-142.75;100.00;76442.34;4936695;29;20005;-66
2023/03/07 03:31:39;;;;;;;;;;;;;;;-142.75;100.00;76436.44;4936760;29;20012;-68
2023/03/07 03:34:04;;;;;;;;;;;;;;;-142.75;100.00;76432.50;4936818;29;19914;-66
2023/03/07 03:36:30;;;;;;;;;;;;;;;-142.75;100.00;76450.22;4936821;29;19918;-67
2023/03/07 03:38:55;;;;;;;;;;;;;;;-142.75;100.00;76458.09;4937805;29;19918;-66
2023/03/07 03:41:21;;;;;;;;;;;;;;;-142.75;100.00;76444.31;4937296;29;20333;-66
2023/03/07 03:43:47;;;;;;;;;;;;;;;-142.75;100.00;76434.47;4936794;29;19989;-66
2023/03/07 03:46:12;;;;;;;;;;;;;;;-142.75;100.00;76446.28;4936569;29;20369;-67
2023/03/07 03:48:37;;;;;;;;;;;;;;;-142.75;100.00;76432.50;4936499;29;20304;-67
2023/03/07 03:51:07;;;;;;;;;;;;;;;-142.75;100.00;76448.25;4936135;29;19942;-66
2023/03/07 03:53:33;;;;;;;;;;;;;;;-142.75;100.00;76454.16;4936408;29;20308;-67
2023/03/07 03:56:03;;;;;;;;;;;;;;;-142.75;100.00;76464.00;4936418;29;19910;-66
2023/03/07 03:58:28;;;;;;;;;;;;;;;-142.75;100.00;76452.19;4919205;29;19911;-66
2023/03/07 04:00:53;;;;;;;;;;;;;;;-142.75;100.00;76454.16;4934186;29;19929;-67
2023/03/07 04:03:18;;;;;;;;;;;;;;;-142.75;100.00;76473.84;4936232;29;20002;-67
2023/03/07 04:05:44;;;;;;;;;;;;;;;-142.75;100.00;76479.75;4936168;29;19932;-66
2023/03/07 04:08:09;;;;;;;;;;;;;;;-142.75;100.00;76491.56;4936107;29;20380;-66
2023/03/07 04:10:34;;;;;;;;;;;;;;;-142.75;100.00;76485.66;4935862;29;19911;-66
2023/03/07 04:12:59;;;;;;;;;;;;;;;-142.75;100.00;76493.53;4936038;29;19911;-66
2023/03/07 04:15:24;;;;;;;;;;;;;;;-142.75;100.00;76495.50;4918955;29;20312;-66
2023/03/07 04:17:50;;;;;;;;;;;;;;;-142.75;100.00;76513.22;4936005;29;20443;-66
2023/03/07 04:20:18;;;;;;;;;;;;;;;-142.75;100.00;76525.03;4934476;29;19921;-69
2023/03/07 04:22:43;;;;;;;;;;;;;;;-142.75;100.00;76546.66;4935840;29;20009;-66
2023/03/07 04:25:08;;;;;;;;;;;;;;;-142.75;100.00;76564.38;4935949;29;20013;-66
2023/03/07 04:27:34;;;;;;;;;;;;;;;-142.75;100.00;76556.50;4935835;29;19941;-66
2023/03/07 04:29:59;;;;;;;;;;;;;;;-142.75;100.00;76566.34;4927171;29;20289;-66
2023/03/07 04:32:25;;;;;;;;;;;;;;;-142.75;100.00;76574.22;4920104;29;19919;-66
2023/03/07 04:34:50;;;;;;;;;;;;;;;-142.75;100.00;76562.41;4916812;29;19911;-66
2023/03/07 04:37:15;;;;;;;;;;;;;;;-142.75;100.00;76566.34;4899611;29;20421;-66
2023/03/07 04:39:40;;;;;;;;;;;;;;;-142.75;100.00;76566.34;4917554;29;20080;-66
2023/03/07 04:42:05;;;;;;;;;;;;;;;-142.75;100.00;76548.63;4935458;29;19915;-66
2023/03/07 04:44:31;;;;;;;;;;;;;;;-142.75;100.00;76540.75;4935589;29;19911;-66
2023/03/07 04:46:56;;;;;;;;;;;;;;;-142.75;100.00;76536.84;4918039;29;19964;-66
2023/03/07 04:49:21;;;;;;;;;;;;;;;-142.75;100.00;76538.78;4935213;29;19997;-67
2023/03/07 04:51:46;;;;;;;;;;;;;;;-142.75;100.00;76530.91;4935365;29;19911;-66
2023/03/07 04:54:11;;;;;;;;;;;;;;;-142.75;100.00;76534.84;4935470;29;19911;-66
2023/03/07 04:56:37;;;;;;;;;;;;;;;-142.75;100.00;76528.97;4935437;29;19914;-66
2023/03/07 04:59:02;;;;;;;;;;;;;;;-142.75;100.00;76538.78;4935368;29;20460;-67
2023/03/07 05:01:27;;;;;;;;;;;;;;;-142.75;100.00;76548.63;4917935;29;19969;-66
2023/03/07 05:03:52;;;;;;;;;;;;;;;-142.75;100.00;76544.69;4935371;29;20434;-66
2023/03/07 05:06:17;;;;;;;;;;;;;;;-142.75;100.00;76540.75;4935197;29;19917;-66
2023/03/07 05:08:43;;;;;;;;;;;;;;;-142.75;100.00;76550.59;4935249;29;20289;-66
2023/03/07 05:11:08;;;;;;;;;;;;;;;-142.75;100.00;76546.66;4934753;29;20384;-66
2023/03/07 05:13:33;;;;;;;;;;;;;;;-142.75;100.00;76554.53;4935162;29;20315;-66
2023/03/07 05:15:59;;;;;;;;;;;;;;;-142.75;100.00;76550.59;4935060;29;19917;-66
2023/03/07 05:18:25;;;;;;;;;;;;;;;-142.75;100.00;76554.53;4935032;29;19911;-66
2023/03/07 05:20:50;;;;;;;;;;;;;;;-142.75;100.00;76570.28;4934517;29;19918;-66
2023/03/07 05:23:16;;;;;;;;;;;;;;;-142.75;100.00;76560.44;4935010;29;19973;-66
2023/03/07 05:25:42;;;;;;;;;;;;;;;-142.75;100.00;76586.03;4935037;29;19949;-66
2023/03/07 05:28:07;;;;;;;;;;;;;;;-142.75;100.00;76586.03;4932455;29;19914;-66
2023/03/07 05:30:33;;;;;;;;;;;;;;;-142.75;100.00;76593.91;4934050;29;19962;-66
2023/03/07 05:32:58;;;;;;;;;;;;;;;-142.75;100.00;76609.66;4936690;29;19966;-66
2023/03/07 05:35:24;;;;;;;;;;;;;;;-142.75;100.00;76613.59;4950218;29;19918;-66
2023/03/07 05:37:49;;;;;;;;;;;;;;;-142.75;100.00;76609.66;4943585;29;19911;-66
2023/03/07 05:40:15;;;;;;;;;;;;;;;-142.75;100.00;76619.50;4934454;29;19911;-66
2023/03/07 05:42:40;;;;;;;;;;;;;;;-142.75;100.00;76601.78;4934652;29;19910;-66
2023/03/07 05:45:06;;;;;;;;;;;;;;;-142.75;100.00;76629.34;4934818;29;20292;-66
2023/03/07 05:47:31;;;;;;;;;;;;;;;-142.75;100.00;76662.81;4934636;29;19917;-66
2023/03/07 05:49:56;;;;;;;;;;;;;;;-142.75;100.00;76635.25;4939891;29;19933;-66
2023/03/07 05:52:21;;;;;;;;;;;;;;;-142.75;100.00;76656.91;4940936;29;19965;-66
2023/03/07 05:54:47;;;;;;;;;;;;;;;-142.75;100.00;76688.41;4923897;29;20005;-66
2023/03/07 05:57:12;;;;;;;;;;;;;;;-142.75;100.00;76700.22;4941019;29;19918;-66
2023/03/07 05:59:37;;;;;;;;;;;;;;;-142.75;100.00;76723.84;4940823;29;19970;-66
2023/03/07 06:02:02;;;;;;;;;;;;;;;-142.75;100.00;76727.78;4940674;29;19999;-66
2023/03/07 06:04:27;;;;;;;;;;;;;;;-142.75;100.00;76755.34;4923790;29;19949;-66
2023/03/07 06:06:53;;;;;;;;;;;;;;;-142.75;100.00;76757.31;4923649;29;19957;-66
2023/03/07 06:09:18;;;;;;;;;;;;;;;-142.75;100.00;76773.06;4940559;29;19910;-66
2023/03/07 06:11:43;;;;;;;;;;;;;;;-142.75;100.00;76782.91;4940694;29;19914;-66
2023/03/07 06:14:08;;;;;;;;;;;;;;;-142.75;100.00;76780.94;4940774;29;19918;-66
2023/03/07 06:16:33;;;;;;;;;;;;;;;-142.75;100.00;76739.59;4940697;29;19910;-66
2023/03/07 06:18:59;;;;;;;;;;;;;;;-142.75;100.00;76749.44;4940820;29;19911;-66
2023/03/07 06:21:24;;;;;;;;;;;;;;;-142.75;100.00;76745.50;4940204;29;19966;-66
2023/03/07 06:23:49;;;;;;;;;;;;;;;-142.75;100.00;76765.19;4940728;29;20005;-66
2023/03/07 06:26:14;;;;;;;;;;;;;;;-142.75;100.00;76763.22;4940702;29;19974;-66
2023/03/07 06:28:40;;;;;;;;;;;;;;;-142.75;100.00;76747.47;4940722;29;19918;-66
2023/03/07 06:31:09;;;;;;;;;;;;;;;-142.75;100.00;76747.47;4940290;29;19911;-66
2023/03/07 06:33:34;;;;;;;;;;;;;;;-142.75;100.00;76731.72;4940678;29;19918;-66
2023/03/07 06:36:03;;;;;;;;;;;;;;;-142.75;100.00;76753.38;4940640;29;19911;-66
2023/03/07 06:38:28;;;;;;;;;;;;;;;-142.75;100.00;76767.16;4940679;29;20001;-66
2023/03/07 06:40:55;;;;;;;;;;;;;;;-142.75;100.00;76759.28;4940462;29;20062;-66
2023/03/07 06:43:20;;;;;;;;;;;;;;;-142.75;100.00;76798.66;4923287;29;20396;-66
2023/03/07 06:45:45;;;;;;;;;;;;;;;-142.75;100.00;76767.16;4940321;29;19949;-66
2023/03/07 06:48:10;;;;;;;;;;;;;;;-142.75;100.00;76773.06;4940531;29;19997;-66
2023/03/07 06:50:38;;;;;;;;;;;;;;;-142.75;100.00;76782.91;4940143;29;20443;-66
2023/03/07 06:53:03;;;;;;;;;;;;;;;-142.75;100.00;76782.91;4940159;29;19915;-66
2023/03/07 06:55:28;;;;;;;;;;;;;;;-142.75;100.00;76790.78;4940321;29;19917;-66
2023/03/07 06:57:53;;;;;;;;;;;;;;;-142.75;100.00;76777.00;4940464;29;19917;-66
2023/03/07 07:00:19;;;;;;;;;;;;;;;-142.75;100.00;76798.66;4938721;29;19917;-66
2023/03/07 07:02:44;;;;;;;;;;;;;;;-142.75;100.00;76786.84;4937145;29;19918;-66
2023/03/07 07:05:09;;;;;;;;;;;;;;;-142.75;100.00;76794.69;4937314;29;20408;-66
2023/03/07 07:07:34;;;;;;;;;;;;;;;-142.75;100.00;76790.78;4920241;29;19962;-66
2023/03/07 07:10:00;;;;;;;;;;;;;;;-142.75;100.00;76778.97;4937039;29;19910;-66
2023/03/07 07:12:26;;;;;;;;;;;;;;;-142.75;100.00;76800.63;4919888;29;20392;-66
2023/03/07 07:14:51;;;;;;;;;;;;;;;-142.75;100.00;76788.81;4937070;29;20403;-66
2023/03/07 07:17:16;;;;;;;;;;;;;;;-142.75;100.00;76777.00;4937125;29;19914;-66
2023/03/07 07:19:41;;;;;;;;;;;;;;;-142.75;100.00;76777.00;4919525;29;19919;-66
2023/03/07 07:22:10;;;;;;;;;;;;;;;-142.75;100.00;76786.84;4936747;29;19915;-66
2023/03/07 07:24:36;;;;;;;;;;;;;;;-142.75;100.00;76777.00;4937006;29;20005;-66
2023/03/07 07:27:01;;;;;;;;;;;;;;;-142.75;100.00;76761.25;4936802;29;19946;-66
2023/03/07 07:29:26;;;;;;;;;;;;;;;-142.75;100.00;76782.91;4936657;29;19911;-65
2023/03/07 07:31:51;;;;;;;;;;;;;;;-142.75;100.00;76782.91;4936754;29;19911;-66
2023/03/07 07:34:17;;;;;;;;;;;;;;;-142.75;100.00;76790.78;4936777;29;19911;-66
2023/03/07 07:36:42;;;;;;;;;;;;;;;-142.75;100.00;76784.88;4919612;29;19982;-66
2023/03/07 07:39:09;;;;;;;;;;;;;;;-142.75;100.00;76788.81;4936495;29;19961;-66
2023/03/07 07:41:34;;;;;;;;;;;;;;;-142.75;100.00;76790.78;4936556;29;19946;-66
2023/03/07 07:43:59;;;;;;;;;;;;;;;-142.75;100.00;76796.69;4936512;29;19911;-66
2023/03/07 07:46:27;;;;;;;;;;;;;;;-142.75;100.00;76794.69;4936452;29;19915;-66
2023/03/07 07:48:52;;;;;;;;;;;;;;;-142.75;100.00;76794.69;4936421;29;19953;-66
2023/03/07 07:51:17;;;;;;;;;;;;;;;-142.75;100.00;76814.38;4936106;29;20337;-66
2023/03/07 07:53:43;;;;;;;;;;;;;;;-142.75;100.00;76832.09;4936497;29;19930;-66
2023/03/07 07:56:08;;;;;;;;;;;;;;;-142.75;100.00;76832.09;4936405;29;19910;-66
2023/03/07 07:58:34;;;;;;;;;;;;;;;-142.75;100.00;76820.28;4936335;29;20241;-66
2023/03/07 08:00:59;;;;;;;;;;;;;;;-142.75;100.00;76845.88;4935711;29;19958;-66
2023/03/07 08:03:24;;;;;;;;;;;;;;;-142.75;100.00;76838.00;4935716;29;20037;-66
2023/03/07 08:05:50;;;;;;;;;;;;;;;-142.75;100.00;76851.78;4936407;29;19957;-66
2023/03/07 08:08:16;;;;;;;;;;;;;;;-142.75;100.00;76869.50;4936257;29;19911;-66
2023/03/07 08:10:43;;;;;;;;;;;;;;;-142.75;100.00;76885.25;4935872;29;19914;-65
2023/03/07 08:13:11;;;;;;;;;;;;;;;-142.75;100.00;76871.47;4935626;29;20404;-66
2023/03/07 08:15:36;;;;;;;;;;;;;;;-142.75;100.00;76857.69;4936128;29;20061;-65
2023/03/07 08:18:01;;;;;;;;;;;;;;;-142.75;100.00;76851.78;4935598;29;19997;-66
2023/03/07 08:20:26;;;;;;;;;;;;;;;-142.75;100.00;76865.56;4935694;29;19923;-65
2023/03/07 08:22:51;;;;;;;;;;;;;;;-142.75;100.00;76873.44;4935903;29;19969;-66
2023/03/07 08:25:20;;;;;;;;;;;;;;;-142.75;100.00;76857.69;4935943;29;19966;-67
2023/03/07 08:27:45;;;;;;;;;;;;;;;-142.75;100.00;76834.06;4935837;29;19910;-66
2023/03/07 08:30:11;;;;;;;;;;;;;;;-142.75;100.00;76826.19;4935720;29;19966;-67
2023/03/07 08:32:36;;;;;;;;;;;;;;;-142.75;100.00;76822.25;4935688;29;19910;-66
2023/03/07 08:35:02;;;;;;;;;;;;;;;-142.75;100.00;76830.13;4935865;29;19967;-66
2023/03/07 08:37:28;;;;;;;;;;;;;;;-142.75;100.00;76851.78;4935698;29;19938;-67
2023/03/07 08:39:53;;;;;;;;;;;;;;;-142.75;100.00;76828.16;4935540;29;19968;-67
2023/03/07 08:42:19;;;;;;;;;;;;;;;-142.75;100.00;76828.16;4935249;29;19922;-67
2023/03/07 08:44:44;;;;;;;;;;;;;;;-142.75;100.00;76818.31;4935453;29;19914;-66
2023/03/07 08:47:11;;;;;;;;;;;;;;;-142.75;100.00;76810.44;4935516;29;20376;-66
2023/03/07 08:49:36;;;;;;;;;;;;;;;-142.75;100.00;76792.75;4940297;28;19923;-67
2023/03/07 08:52:01;;;;;;;;;;;;;;;-142.75;100.00;76778.97;4937847;29;19915;-66
2023/03/07 08:54:27;;;;;;;;;;;;;;;-142.75;100.00;76767.16;4932238;29;19922;-66
2023/03/07 08:56:52;;;;;;;;;;;;;;;-142.75;100.00;76780.94;4935178;29;20436;-67
2023/03/07 08:59:17;;;;;;;;;;;;;;;-142.75;100.00;76759.28;4943640;28;20340;-66
2023/03/07 09:01:42;;;;;;;;;;;;;;;-142.75;100.00;76747.47;4944698;29;20045;-66
2023/03/07 09:04:07;;;;;;;;;;;;;;;-142.75;100.00;76751.41;4947232;29;19915;-66
2023/03/07 09:06:33;;;;;;;;;;;;;;;-142.75;100.00;76733.69;4942030;29;19969;-66
2023/03/07 09:08:58;;;;;;;;;;;;;;;-142.75;100.00;76733.69;4935857;29;20042;-66
2023/03/07 09:11:25;;;;;;;;;;;;;;;-142.75;100.00;76723.84;4936152;29;19919;-66
2023/03/07 09:13:50;;;;;;;;;;;;;;;-142.75;100.00;76712.03;4935755;29;19918;-66
2023/03/07 09:16:16;;;;;;;;;;;;;;;-142.75;100.00;76721.88;4936293;29;19915;-66
2023/03/07 09:18:41;;;;;;;;;;;;;;;-142.75;100.00;76692.34;4941120;29;19910;-66
2023/03/07 09:21:06;;;;;;;;;;;;;;;-142.75;100.00;76698.25;4945749;28;19966;-66
2023/03/07 09:23:31;;;;;;;;;;;;;;;-142.75;100.00;76688.41;4952650;28;19937;-66
2023/03/07 09:26:00;;;;;;;;;;;;;;;-142.75;100.00;76694.31;4944151;29;19910;-66
2023/03/07 09:28:26;;;;;;;;;;;;;;;-142.75;100.00;76686.44;4941475;29;19951;-66
2023/03/07 09:30:51;;;;;;;;;;;;;;;-142.75;100.00;76678.56;4943997;29;19949;-66
2023/03/07 09:33:16;;;;;;;;;;;;;;;-142.75;100.00;76674.63;4943618;29;19957;-66
2023/03/07 09:35:41;;;;;;;;;;;;;;;-142.75;100.00;76654.94;4948002;29;19910;-66
2023/03/07 09:38:07;;;;;;;;;;;;;;;-142.75;100.00;76658.88;4948400;29;19911;-66
2023/03/07 09:40:32;;;;;;;;;;;;;;;-142.75;100.00;76639.19;4946078;29;19917;-66
2023/03/07 09:43:07;;;;;;;;;;;;;;;-142.75;100.00;76645.09;4945459;29;20005;-66
2023/03/07 09:45:38;;;;;;;;;;;;;;;-142.75;100.00;76621.47;4946875;29;20427;-66
2023/03/07 09:48:06;;;;;;;;;;;;;;;-142.75;100.00;76607.69;4942165;29;19911;-66
2023/03/07 09:50:37;;;;;;;;;;;;;;;-142.75;100.00;76593.91;4933384;29;20348;-66
2023/03/07 09:53:03;;;;;;;;;;;;;;;-142.75;100.00;76593.91;4937591;29;19970;-66
2023/03/07 09:55:29;;;;;;;;;;;;;;;-142.75;100.00;76599.81;4945888;29;19914;-66
2023/03/07 09:57:56;;;;;;;;;;;;;;;-142.75;100.00;76589.97;4948852;29;20364;-66
2023/03/07 10:00:25;;;;;;;;;;;;;;;-142.75;100.00;76609.66;4943841;28;19949;-67
2023/03/07 10:02:57;;;;;;;;;;;;;;;-142.75;100.00;76593.91;4942662;29;19910;-66
2023/03/07 10:05:37;;;;;;;;;;;;;;;-142.75;100.00;76623.44;4929391;29;20381;-66
2023/03/07 10:08:05;;;;;;;;;;;;;;;-142.75;100.00;76647.06;4933643;29;19958;-66
2023/03/07 10:10:40;;;;;;;;;;;;;;;-142.75;100.00;76625.41;4931931;29;19911;-66
2023/03/07 10:13:30;;;;;;;;;;;;;;;-142.75;100.00;76611.63;4934473;29;20284;-66
2023/03/07 10:16:00;;;;;;;;;;;;;;;-142.75;100.00;76611.63;4916386;29;20352;-66
2023/03/07 10:18:33;;;;;;;;;;;;;;;-142.75;100.00;76635.25;4937217;29;20336;-66
2023/03/07 10:21:11;;;;;;;;;;;;;;;-142.75;100.00;76664.78;4937057;29;19919;-66
2023/03/07 10:23:52;;;;;;;;;;;;;;;-142.75;100.00;76641.16;4940940;29;19914;-66
2023/03/07 10:26:26;;;;;;;;;;;;;;;-142.75;100.00;76631.31;4933381;29;19910;-66
2023/03/07 10:28:51;;;;;;;;;;;;;;;-142.75;100.00;76627.38;4939687;29;20409;-66
2023/03/07 10:31:21;;;;;;;;;;;;;;;-142.75;100.00;76629.34;4945698;28;20008;-66
2023/03/07 10:33:47;;;;;;;;;;;;;;;-142.75;100.00;76629.34;4915776;29;19998;-66
2023/03/07 10:36:16;;;;;;;;;;;;;;;-142.75;100.00;76623.44;4927860;29;19910;-66
2023/03/07 10:38:41;;;;;;;;;;;;;;;-142.75;100.00;76664.78;4928613;29;20356;-67
2023/03/07 10:41:12;;;;;;;;;;;;;;;-142.75;100.00;76676.59;4926304;29;19943;-67
2023/03/07 10:43:38;;;;;;;;;;;;;;;-142.75;100.00;76690.38;4927821;29;19962;-67
2023/03/07 10:46:09;;;;;;;;;;;;;;;-142.75;100.00;76710.06;4923885;29;19919;-67
2023/03/07 10:48:36;;;;;;;;;;;;;;;-142.75;100.00;76727.78;4918785;29;20348;-67
2023/03/07 10:51:10;;;;;;;;;;;;;;;-142.75;100.00;76714.00;4922641;29;19911;-67
2023/03/07 10:53:36;;;;;;;;;;;;;;;-142.75;100.00;76692.34;4933258;29;19923;-67
2023/03/07 10:56:22;;;;;;;;;;;;;;;-142.75;100.00;76712.03;4951480;29;19910;-67
2023/03/07 10:59:04;;;;;;;;;;;;;;;-142.75;100.00;76690.38;4956365;29;20395;-68
2023/03/07 11:01:30;;;;;;;;;;;;;;;-142.75;100.00;76690.38;4956666;28;19937;-68
2023/03/07 11:04:06;;;;;;;;;;;;;;;-142.75;100.00;76682.50;4956726;29;19910;-68
2023/03/07 11:06:31;;;;;;;;;;;;;;;-142.75;100.00;76690.38;4957175;29;19926;-68
2023/03/07 11:08:56;;;;;;;;;;;;;;;-142.75;100.00;76684.47;4956704;29;19926;-68
2023/03/07 11:11:24;;;;;;;;;;;;;;;-142.75;100.00;76678.56;4939737;28;19922;-68
2023/03/07 11:14:03;;;;;;;;;;;;;;;-142.75;100.00;76672.66;4937954;29;19910;-68
2023/03/07 11:16:28;;;;;;;;;;;;;;;-142.75;100.00;76660.84;4937997;29;20324;-68
2023/03/07 11:18:54;;;;;;;;;;;;;;;-142.75;100.00;76664.78;4937859;29;19914;-68
2023/03/07 11:21:25;;;;;;;;;;;;;;;-142.75;100.00;76682.50;4937184;29;20010;-67
2023/03/07 11:23:58;;;;;;;;;;;;;;;-142.75;100.00;76676.59;4937377;29;19910;-68
2023/03/07 11:26:23;;;;;;;;;;;;;;;-142.75;100.00;76664.78;4937314;29;19917;-68
2023/03/07 11:29:02;;;;;;;;;;;;;;;-142.75;100.00;76651.00;4937175;29;19997;-67
2023/03/07 11:31:32;;;;;;;;;;;;;;;-142.75;100.00;76668.72;4936848;29;19918;-68
2023/03/07 11:34:09;;;;;;;;;;;;;;;-142.75;100.00;76672.66;4937206;29;19918;-67
2023/03/07 11:36:35;;;;;;;;;;;;;;;-142.75;100.00;76680.53;4937125;29;19926;-68
2023/03/07 11:39:18;;;;;;;;;;;;;;;-142.75;100.00;76690.38;4936936;29;19918;-68
2023/03/07 11:41:46;;;;;;;;;;;;;;;-142.75;100.00;76670.69;4936787;29;19930;-68
2023/03/07 11:44:26;;;;;;;;;;;;;;;-142.75;100.00;76649.03;4937021;29;19910;-68
2023/03/07 11:46:58;;;;;;;;;;;;;;;-142.75;100.00;76645.09;4936281;29;20001;-68
2023/03/07 11:49:44;;;;;;;;;;;;;;;-142.75;100.00;76645.09;4936651;29;19937;-68
2023/03/07 11:52:15;;;;;;;;;;;;;;;-142.75;100.00;76645.09;4936692;29;19911;-67
2023/03/07 11:54:40;;;;;;;;;;;;;;;-142.75;100.00;76662.81;4919756;29;20324;-68
2023/03/07 11:57:17;;;;;;;;;;;;;;;-142.75;100.00;76633.28;4936687;29;19911;-68
2023/03/07 11:59:51;;;;;;;;;;;;;;;-142.75;100.00;76637.22;4936826;29;19911;-68
2023/03/07 12:02:39;;;;;;;;;;;;;;;-142.75;100.00;76635.25;4936723;29;19919;-68
2023/03/07 12:05:14;;;;;;;;;;;;;;;-142.75;100.00;76617.53;4936552;29;19957;-68
2023/03/07 12:07:39;;;;;;;;;;;;;;;-142.75;100.00;76617.53;4936682;29;19910;-68
2023/03/07 12:10:04;;;;;;;;;;;;;;;-142.75;100.00;76651.00;4936693;29;19973;-67
2023/03/07 12:12:33;;;;;;;;;;;;;;;-142.75;100.00;76674.63;4936313;29;19917;-68
2023/03/07 12:15:17;;;;;;;;;;;;;;;-142.75;100.00;76660.84;4936396;29;19910;-67
2023/03/07 12:17:51;;;;;;;;;;;;;;;-142.75;100.00;76676.59;4936259;29;20376;-68